createdAt,value
2018-04-18T00:00:42.201Z,12.57
2018-04-18T00:03:10.090Z,12.07
2018-04-18T00:05:37.638Z,11.07
2018-04-18T00:08:06.004Z,11.60
2018-04-18T00:10:33.672Z,11.03
2018-04-18T00:13:01.222Z,11.33
2018-04-18T00:15:28.814Z,10.57
2018-04-18T00:17:56.358Z,10.23
2018-04-18T00:20:24.175Z,10.73
2018-04-18T00:22:51.897Z,9.67
2018-04-18T00:25:19.441Z,9.97
2018-04-18T00:27:46.989Z,10.03
2018-04-18T00:30:14.578Z,10.33
2018-04-18T00:32:43.433Z,9.93
2018-04-18T00:35:11.001Z,11.23
2018-04-18T00:37:38.967Z,10.43
2018-04-18T00:40:06.836Z,10.40
2018-04-18T00:42:34.801Z,10.93
2018-04-18T00:45:02.402Z,11.53
2018-04-18T00:47:30.360Z,11.37
2018-04-18T00:49:58.201Z,11.60
2018-04-18T00:52:25.757Z,11.47
2018-04-18T00:54:53.661Z,10.77
2018-04-18T00:57:21.811Z,11.47
2018-04-18T00:59:49.574Z,11.13
2018-04-18T01:02:17.128Z,10.17
2018-04-18T01:04:44.784Z,11.40
2018-04-18T01:07:12.317Z,10.57
2018-04-18T01:09:39.878Z,10.57
2018-04-18T01:12:07.517Z,11.23
2018-04-18T01:14:35.906Z,11.33
2018-04-18T01:17:03.736Z,10.10
2018-04-18T01:19:31.354Z,12.73
2018-04-18T01:21:58.937Z,9.67
2018-04-18T01:24:26.523Z,9.47
2018-04-18T01:26:54.368Z,10.37
2018-04-18T01:29:21.985Z,9.93
2018-04-18T01:31:49.536Z,9.90
2018-04-18T01:34:17.608Z,9.33
2018-04-18T01:36:45.242Z,8.80
2018-04-18T01:39:12.783Z,8.70
2018-04-18T01:41:40.334Z,9.60
2018-04-18T01:44:08.121Z,9.93
2018-04-18T01:46:36.176Z,9.43
2018-04-18T01:49:15.722Z,8.67
2018-04-18T01:51:43.265Z,8.63
2018-04-18T01:54:10.813Z,9.50
2018-04-18T01:56:38.780Z,9.10
2018-04-18T01:59:06.371Z,9.50
2018-04-18T02:01:34.685Z,9.73
2018-04-18T02:04:02.225Z,9.83
2018-04-18T02:06:29.817Z,10.30
2018-04-18T02:08:57.888Z,9.70
2018-04-18T02:14:24.615Z,9.73
2018-04-18T02:16:52.162Z,9.77
2018-04-18T02:19:19.709Z,10.20
2018-04-18T02:21:47.297Z,10.20
2018-04-18T02:24:14.905Z,9.67
2018-04-18T02:26:42.449Z,8.83
2018-04-18T02:29:10.014Z,10.97
2018-04-18T02:31:37.714Z,10.20
2018-04-18T02:34:05.498Z,10.23
2018-04-18T02:36:33.070Z,11.50
2018-04-18T02:39:00.704Z,11.33
2018-04-18T02:41:28.329Z,10.97
2018-04-18T02:43:55.890Z,11.83
2018-04-18T02:49:22.022Z,12.23
2018-04-18T02:51:49.636Z,11.37
2018-04-18T02:54:17.190Z,12.80
2018-04-18T02:56:45.678Z,12.30
2018-04-18T02:59:13.840Z,12.00
2018-04-18T03:01:41.430Z,12.47
2018-04-18T03:04:09.003Z,11.77
2018-04-18T03:06:36.590Z,11.60
2018-04-18T03:09:04.184Z,12.33
2018-04-18T03:11:32.989Z,12.33
2018-04-18T03:14:00.537Z,12.40
2018-04-18T03:16:28.089Z,12.83
2018-04-18T03:18:55.689Z,13.40
2018-04-18T03:21:23.719Z,11.67
2018-04-18T03:23:51.454Z,12.70
2018-04-18T03:26:19.026Z,12.33
2018-04-18T03:28:46.577Z,13.83
2018-04-18T03:31:14.185Z,14.10
2018-04-18T03:33:42.548Z,12.37
2018-04-18T03:36:10.143Z,11.97
2018-04-18T03:38:37.746Z,13.20
2018-04-18T03:43:55.893Z,13.93
2018-04-18T03:46:24.098Z,13.60
2018-04-18T03:48:52.672Z,16.20
2018-04-18T03:51:20.330Z,15.87
2018-04-18T03:53:49.360Z,13.73
2018-04-18T03:56:16.912Z,13.00
2018-04-18T03:58:44.522Z,13.63
2018-04-18T04:01:12.075Z,13.63
2018-04-18T04:03:40.292Z,14.93
2018-04-18T04:06:08.192Z,15.13
2018-04-18T04:08:35.742Z,13.13
2018-04-18T04:11:03.345Z,12.97
2018-04-18T04:13:30.960Z,13.10
2018-04-18T04:15:58.538Z,13.60
2018-04-18T04:18:39.166Z,14.50
2018-04-18T04:21:18.667Z,13.80
2018-04-18T04:23:57.874Z,13.10
2018-04-18T04:26:26.849Z,13.00
2018-04-18T04:28:54.442Z,12.57
2018-04-18T04:31:22.046Z,11.57
2018-04-18T04:33:49.622Z,13.23
2018-04-18T04:36:17.233Z,12.90
2018-04-18T04:38:45.113Z,13.23
2018-04-18T04:41:12.729Z,13.53
2018-04-18T04:43:40.287Z,13.00
2018-04-18T04:46:08.385Z,13.00
2018-04-18T04:48:36.168Z,13.20
2018-04-18T04:51:03.786Z,12.20
2018-04-18T04:53:32.346Z,13.40
2018-04-18T04:55:59.893Z,13.87
2018-04-18T04:58:27.975Z,13.20
2018-04-18T05:00:56.736Z,14.37
2018-04-18T05:03:24.958Z,15.57
2018-04-18T05:05:52.587Z,16.70
2018-04-18T05:08:21.157Z,18.37
2018-04-18T05:10:51.453Z,17.30
2018-04-18T05:13:19.323Z,22.87
2018-04-18T05:15:46.956Z,23.17
2018-04-18T05:18:15.926Z,21.40
2018-04-18T05:20:43.490Z,17.63
2018-04-18T05:23:12.066Z,18.13
2018-04-18T05:25:39.678Z,17.07
2018-04-18T05:28:07.242Z,15.83
2018-04-18T05:30:34.876Z,15.33
2018-04-18T05:42:19.598Z,12.80
2018-04-18T05:44:47.162Z,13.43
2018-04-18T05:47:15.015Z,13.50
2018-04-18T05:49:42.607Z,13.47
2018-04-18T05:52:10.362Z,14.43
2018-04-18T05:54:38.021Z,12.73
2018-04-18T05:57:05.717Z,12.07
2018-04-18T05:59:33.273Z,11.70
2018-04-18T06:02:00.876Z,10.47
2018-04-18T06:04:28.740Z,11.47
2018-04-18T06:06:56.385Z,9.93
2018-04-18T06:09:24.308Z,11.53
2018-04-18T06:11:52.127Z,10.13
2018-04-18T06:14:19.726Z,10.77
2018-04-18T06:16:47.435Z,9.30
2018-04-18T06:19:15.069Z,9.80
2018-04-18T06:21:42.630Z,9.80
2018-04-18T06:24:10.191Z,10.05
2018-04-18T06:26:37.790Z,8.87
2018-04-18T06:29:05.520Z,8.03
2018-04-18T06:31:33.068Z,9.00
2018-04-18T06:34:00.657Z,8.43
2018-04-18T06:36:29.670Z,9.97
2018-04-18T06:38:57.294Z,9.47
2018-04-18T06:41:24.860Z,7.13
2018-04-18T06:43:53.286Z,9.10
2018-04-18T06:46:20.896Z,7.87
2018-04-18T06:48:48.510Z,8.80
2018-04-18T06:51:16.907Z,7.60
2018-04-18T06:53:44.634Z,8.73
2018-04-18T06:56:12.298Z,10.37
2018-04-18T06:58:39.959Z,8.63
2018-04-18T07:01:07.507Z,13.30
2018-04-18T07:03:35.102Z,10.87
2018-04-18T07:06:03.682Z,9.30
2018-04-18T07:08:31.234Z,20.97
2018-04-18T07:10:59.034Z,15.27
2018-04-18T07:13:26.781Z,11.47
2018-04-18T07:15:55.190Z,13.17
2018-04-18T07:18:22.803Z,10.67
2018-04-18T07:20:50.483Z,9.50
2018-04-18T07:23:18.078Z,8.73
2018-04-18T07:25:45.628Z,9.47
2018-04-18T07:28:13.171Z,9.27
2018-04-18T07:30:40.778Z,11.20
2018-04-18T07:33:09.485Z,14.87
2018-04-18T07:35:37.098Z,11.37
2018-04-18T07:38:04.650Z,12.77
2018-04-18T07:40:32.262Z,12.10
2018-04-18T07:42:59.867Z,12.77
2018-04-18T07:45:28.003Z,14.20
2018-04-18T07:47:55.762Z,18.43
2018-04-18T07:50:23.325Z,17.73
2018-04-18T07:52:50.974Z,18.40
2018-04-18T07:55:19.669Z,18.03
2018-04-18T07:57:47.763Z,15.73
2018-04-18T08:00:15.503Z,19.17
2018-04-18T08:02:43.231Z,20.83
2018-04-18T08:05:11.348Z,17.33
2018-04-18T08:07:39.486Z,16.47
2018-04-18T08:10:07.072Z,17.93
2018-04-18T08:12:34.989Z,13.73
2018-04-18T08:15:02.559Z,17.43
2018-04-18T08:17:30.114Z,13.03
2018-04-18T08:19:58.563Z,9.73
2018-04-18T08:22:26.306Z,17.07
2018-04-18T08:24:55.319Z,11.07
2018-04-18T08:27:22.924Z,13.83
2018-04-18T08:29:50.828Z,15.90
2018-04-18T08:32:18.451Z,15.38
2018-04-18T08:34:46.002Z,9.53
2018-04-18T08:37:13.612Z,12.53
2018-04-18T08:39:41.775Z,12.50
2018-04-18T08:42:09.473Z,13.83
2018-04-18T08:44:37.094Z,12.93
2018-04-18T08:47:04.651Z,14.40
2018-04-18T08:49:32.286Z,11.13
2018-04-18T08:52:00.842Z,10.97
2018-04-18T08:54:28.781Z,12.30
2018-04-18T08:56:56.416Z,10.87
2018-04-18T08:59:24.067Z,9.47
2018-04-18T09:01:52.633Z,14.53
2018-04-18T09:04:20.249Z,13.33
2018-04-18T09:06:47.858Z,13.60
2018-04-18T09:09:15.486Z,14.53
2018-04-18T09:11:43.039Z,13.77
2018-04-18T09:14:10.889Z,12.67
2018-04-18T09:16:39.354Z,12.30
2018-04-18T09:19:07.344Z,13.37
2018-04-18T09:21:35.125Z,9.33
2018-04-18T09:24:02.670Z,11.27
2018-04-18T09:26:30.289Z,11.13
2018-04-18T09:28:57.883Z,12.73
2018-04-18T09:31:25.605Z,11.37
2018-04-18T09:33:53.229Z,13.00
2018-04-18T09:36:20.782Z,11.43
2018-04-18T09:38:48.340Z,13.00
2018-04-18T09:41:15.959Z,12.07
2018-04-18T09:43:43.514Z,11.33
2018-04-18T09:46:11.181Z,12.10
2018-04-18T09:48:39.726Z,13.00
2018-04-18T09:51:07.279Z,13.13
2018-04-18T09:53:34.942Z,12.90
2018-04-18T09:56:02.505Z,11.70
2018-04-18T09:58:31.024Z,15.20
2018-04-18T10:00:59.591Z,13.43
2018-04-18T10:03:29.287Z,16.23
2018-04-18T10:05:56.881Z,13.07
2018-04-18T10:08:24.839Z,13.50
2018-04-18T10:10:52.656Z,14.07
2018-04-18T10:13:20.497Z,17.10
2018-04-18T10:15:48.099Z,14.20
2018-04-18T10:18:15.667Z,15.05
2018-04-18T10:20:44.582Z,13.00
2018-04-18T10:23:12.138Z,14.93
2018-04-18T10:25:40.557Z,13.53
2018-04-18T10:28:08.436Z,13.40
2018-04-18T10:30:36.391Z,12.47
2018-04-18T10:33:04.575Z,12.33
2018-04-18T10:35:32.178Z,13.82
2018-04-18T10:38:00.269Z,12.93
2018-04-18T10:40:28.175Z,12.03
2018-04-18T10:42:55.762Z,13.53
2018-04-18T10:45:24.118Z,14.07
2018-04-18T10:47:52.088Z,11.73
2018-04-18T10:50:20.623Z,12.77
2018-04-18T10:52:48.281Z,13.97
2018-04-18T10:55:15.925Z,12.87
2018-04-18T10:57:43.537Z,12.43
2018-04-18T11:00:11.083Z,12.60
2018-04-18T11:02:38.685Z,12.37
2018-04-18T11:05:07.060Z,12.73
2018-04-18T11:07:34.618Z,12.90
2018-04-18T11:10:02.299Z,10.50
2018-04-18T11:12:29.868Z,14.27
2018-04-18T11:14:57.442Z,12.10
2018-04-18T11:17:25.102Z,14.77
2018-04-18T11:19:52.658Z,12.37
2018-04-18T11:22:20.274Z,11.80
2018-04-18T11:24:48.707Z,12.43
2018-04-18T11:27:16.381Z,12.77
2018-04-18T11:29:44.009Z,12.90
2018-04-18T11:32:12.367Z,11.70
2018-04-18T11:34:39.918Z,13.03
2018-04-18T11:37:07.515Z,11.57
2018-04-18T11:39:35.134Z,10.07
2018-04-18T11:42:02.693Z,12.87
2018-04-18T11:44:30.346Z,12.17
2018-04-18T11:46:57.954Z,9.43
2018-04-18T11:49:25.530Z,12.27
2018-04-18T11:51:53.236Z,11.23
2018-04-18T11:54:20.794Z,11.30
2018-04-18T11:56:49.310Z,9.97
2018-04-18T11:59:17.913Z,8.53
2018-04-18T12:01:45.562Z,7.47
2018-04-18T12:04:13.155Z,9.53
2018-04-18T12:06:40.708Z,9.40
2018-04-18T12:09:08.370Z,9.67
2018-04-18T12:11:36.015Z,10.57
2018-04-18T12:14:03.683Z,9.70
2018-04-18T12:16:31.446Z,9.03
2018-04-18T12:18:59.082Z,8.87
2018-04-18T12:21:26.629Z,9.00
2018-04-18T12:23:54.983Z,9.67
2018-04-18T12:26:22.582Z,9.03
2018-04-18T12:28:50.186Z,9.37
2018-04-18T12:31:17.791Z,8.10
2018-04-18T12:33:45.370Z,9.90
2018-04-18T12:36:12.922Z,9.60
2018-04-18T12:38:40.514Z,9.47
2018-04-18T12:41:08.133Z,7.07
2018-04-18T12:43:35.763Z,8.20
2018-04-18T12:46:03.406Z,6.97
2018-04-18T12:48:30.954Z,7.77
2018-04-18T12:50:58.562Z,7.17
2018-04-18T12:53:26.336Z,6.53
2018-04-18T12:55:53.995Z,8.53
2018-04-18T12:58:21.567Z,7.23
2018-04-18T13:00:49.205Z,6.00
2018-04-18T13:03:16.815Z,7.07
2018-04-18T13:05:44.384Z,7.23
2018-04-18T13:08:12.084Z,6.67
2018-04-18T13:10:39.746Z,6.30
2018-04-18T13:13:07.282Z,6.13
2018-04-18T13:15:34.951Z,6.67
2018-04-18T13:18:02.626Z,7.43
2018-04-18T13:20:30.198Z,6.73
2018-04-18T13:22:57.834Z,6.40
2018-04-18T13:25:25.435Z,6.50
2018-04-18T13:27:53.930Z,6.10
2018-04-18T13:30:21.543Z,7.03
2018-04-18T13:32:49.087Z,6.17
2018-04-18T13:35:17.619Z,6.60
2018-04-18T13:37:45.231Z,6.60
2018-04-18T13:40:12.812Z,5.67
2018-04-18T13:42:40.480Z,6.43
2018-04-18T13:45:08.040Z,6.10
2018-04-18T13:47:35.669Z,5.60
2018-04-18T13:50:03.271Z,5.70
2018-04-18T13:52:30.873Z,5.27
2018-04-18T13:54:58.496Z,6.47
2018-04-18T13:57:26.089Z,5.83
2018-04-18T13:59:53.642Z,6.93
2018-04-18T14:02:21.190Z,5.73
2018-04-18T14:04:48.834Z,5.60
2018-04-18T14:07:17.287Z,6.67
2018-04-18T14:09:44.929Z,5.40
2018-04-18T14:12:12.535Z,6.13
2018-04-18T14:14:40.118Z,5.90
2018-04-18T14:17:07.666Z,4.30
2018-04-18T14:19:35.285Z,5.80
2018-04-18T14:22:02.830Z,4.97
2018-04-18T14:24:30.378Z,6.03
2018-04-18T14:26:58.034Z,5.57
2018-04-18T14:29:25.994Z,5.30
2018-04-18T14:31:53.621Z,5.20
2018-04-18T14:34:21.254Z,5.37
2018-04-18T14:36:48.862Z,5.77
2018-04-18T14:39:16.471Z,6.03
2018-04-18T14:41:44.121Z,5.17
2018-04-18T14:44:12.302Z,5.10
2018-04-18T14:46:39.926Z,6.73
2018-04-18T14:49:07.537Z,6.10
2018-04-18T14:51:35.251Z,5.50
2018-04-18T14:54:03.601Z,5.37
2018-04-18T14:56:31.303Z,5.20
2018-04-18T14:58:59.196Z,7.13
2018-04-18T15:01:27.215Z,5.73
2018-04-18T15:03:54.878Z,5.73
2018-04-18T15:06:23.011Z,5.33
2018-04-18T15:08:51.563Z,5.17
2018-04-18T15:11:19.215Z,5.77
2018-04-18T15:13:46.762Z,5.33
2018-04-18T15:16:14.373Z,5.57
2018-04-18T15:18:41.978Z,4.60
2018-04-18T15:21:09.586Z,4.87
2018-04-18T15:23:37.242Z,5.47
2018-04-18T15:26:04.926Z,5.20
2018-04-18T15:28:32.518Z,5.27
2018-04-18T15:31:00.130Z,5.70
2018-04-18T15:33:27.814Z,4.97
2018-04-18T15:35:55.446Z,5.43
2018-04-18T15:38:23.002Z,5.10
2018-04-18T15:40:50.792Z,5.03
2018-04-18T15:43:18.338Z,4.97
2018-04-18T15:45:48.766Z,4.87
2018-04-18T15:48:16.386Z,4.87
2018-04-18T15:50:44.814Z,4.83
2018-04-18T15:53:14.219Z,5.10
2018-04-18T15:55:42.649Z,4.40
2018-04-18T15:58:10.311Z,5.27
2018-04-18T16:00:37.855Z,4.63
2018-04-18T16:03:06.565Z,5.47
2018-04-18T16:05:34.129Z,4.77
2018-04-18T16:08:02.682Z,5.13
2018-04-18T16:10:32.015Z,4.70
2018-04-18T16:12:59.581Z,4.70
2018-04-18T16:15:27.135Z,5.57
2018-04-18T16:17:54.730Z,4.63
2018-04-18T16:20:22.373Z,4.90
2018-04-18T16:22:49.995Z,4.40
2018-04-18T16:25:17.618Z,4.30
2018-04-18T16:27:45.263Z,4.27
2018-04-18T16:30:24.534Z,4.90
2018-04-18T16:32:52.214Z,5.17
2018-04-18T16:35:19.769Z,4.70
2018-04-18T16:37:47.378Z,4.93
2018-04-18T16:40:16.749Z,5.03
2018-04-18T16:42:44.310Z,4.73
2018-04-18T16:45:11.870Z,4.57
2018-04-18T16:47:39.603Z,5.37
2018-04-18T16:50:07.154Z,4.93
2018-04-18T16:52:34.754Z,5.00
2018-04-18T16:55:02.359Z,4.77
2018-04-18T16:57:30.054Z,5.33
2018-04-18T16:59:58.834Z,5.50
2018-04-18T17:02:26.440Z,5.23
2018-04-18T17:04:54.098Z,5.57
2018-04-18T17:07:22.782Z,5.27
2018-04-18T17:09:52.157Z,5.20
2018-04-18T17:12:19.742Z,5.47
2018-04-18T17:14:47.891Z,4.37
2018-04-18T17:17:15.539Z,5.13
2018-04-18T17:19:43.122Z,5.10
2018-04-18T17:22:12.600Z,5.57
2018-04-18T17:24:40.189Z,5.60
2018-04-18T17:27:07.851Z,5.30
2018-04-18T17:29:35.426Z,5.20
2018-04-18T17:32:03.460Z,4.90
2018-04-18T17:34:31.938Z,5.03
2018-04-18T17:36:59.590Z,5.50
2018-04-18T17:39:27.202Z,4.43
2018-04-18T17:41:55.158Z,5.97
2018-04-18T17:44:23.477Z,5.47
2018-04-18T17:46:51.142Z,5.23
2018-04-18T17:49:18.710Z,5.23
2018-04-18T17:51:46.380Z,4.60
2018-04-18T17:54:14.983Z,5.37
2018-04-18T17:56:43.702Z,5.90
2018-04-18T17:59:11.355Z,5.90
2018-04-18T18:01:39.254Z,4.90
2018-04-18T18:04:07.713Z,5.07
2018-04-18T18:06:35.286Z,5.23
2018-04-18T18:09:03.938Z,6.37
2018-04-18T18:11:32.104Z,5.80
2018-04-18T18:14:00.472Z,5.10
2018-04-18T18:16:28.087Z,5.40
2018-04-18T18:18:56.703Z,5.43
2018-04-18T18:21:25.294Z,5.60
2018-04-18T18:23:53.218Z,4.70
2018-04-18T18:26:20.875Z,5.10
2018-04-18T18:28:49.522Z,6.10
2018-04-18T18:31:18.106Z,5.30
2018-04-18T18:33:45.715Z,5.73
2018-04-18T18:36:13.346Z,5.40
2018-04-18T18:38:41.074Z,5.10
2018-04-18T18:41:08.658Z,5.37
2018-04-18T18:43:37.237Z,4.93
2018-04-18T18:46:05.210Z,4.57
2018-04-18T18:48:33.757Z,5.80
2018-04-18T18:51:01.419Z,5.50
2018-04-18T18:53:29.050Z,5.60
2018-04-18T18:55:56.594Z,5.60
2018-04-18T18:58:24.222Z,5.37
2018-04-18T19:00:51.777Z,5.70
2018-04-18T19:03:19.381Z,5.10
2018-04-18T19:05:46.993Z,5.47
2018-04-18T19:08:15.048Z,5.70
2018-04-18T19:10:42.589Z,5.40
2018-04-18T19:13:10.138Z,5.43
2018-04-18T19:15:38.587Z,6.00
2018-04-18T19:18:06.672Z,6.27
2018-04-18T19:20:36.175Z,5.20
2018-04-18T19:23:04.192Z,5.80
2018-04-18T19:25:33.125Z,5.30
2018-04-18T19:28:01.895Z,6.13
2018-04-18T19:30:29.953Z,5.47
2018-04-18T19:32:58.710Z,5.33
2018-04-18T19:35:28.002Z,5.50
2018-04-18T19:37:56.567Z,5.97
2018-04-18T19:40:24.466Z,5.47
2018-04-18T19:42:52.043Z,5.27
2018-04-18T19:45:19.649Z,6.63
2018-04-18T19:47:47.531Z,4.33
2018-04-18T19:50:15.789Z,5.50
2018-04-18T19:52:43.338Z,5.53
2018-04-18T19:55:10.930Z,4.90
2018-04-18T19:57:39.482Z,5.70
2018-04-18T20:00:07.267Z,5.30
2018-04-18T20:02:34.819Z,6.43
2018-04-18T20:05:03.027Z,5.70
2018-04-18T20:07:32.359Z,5.77
2018-04-18T20:09:59.914Z,5.63
2018-04-18T20:12:27.462Z,5.23
2018-04-18T20:14:55.318Z,5.67
2018-04-18T20:17:23.997Z,5.30
2018-04-18T20:19:52.670Z,5.33
2018-04-18T20:22:20.383Z,5.20
2018-04-18T20:24:48.535Z,6.00
2018-04-18T20:27:16.639Z,5.90
2018-04-18T20:29:45.289Z,5.13
2018-04-18T20:32:13.698Z,5.30
2018-04-18T20:34:42.678Z,5.17
2018-04-18T20:37:11.234Z,5.43
2018-04-18T20:39:38.778Z,4.90
2018-04-18T20:42:06.322Z,5.17
2018-04-18T20:44:34.116Z,5.37
2018-04-18T20:47:01.659Z,4.93
2018-04-18T20:49:31.237Z,5.43
2018-04-18T20:51:58.925Z,5.23
2018-04-18T20:54:27.639Z,5.37
2018-04-18T20:56:57.198Z,5.30
2018-04-18T20:59:25.589Z,5.50
2018-04-18T21:01:53.918Z,4.87
2018-04-18T21:04:21.458Z,5.43
2018-04-18T21:06:49.791Z,6.13
2018-04-18T21:09:17.335Z,5.23
2018-04-18T21:11:45.506Z,6.33
2018-04-18T21:14:13.126Z,5.70
2018-04-18T21:16:40.716Z,5.37
2018-04-18T21:19:08.273Z,5.50
2018-04-18T21:21:36.880Z,6.10
2018-04-18T21:24:05.067Z,5.60
2018-04-18T21:26:32.936Z,5.50
2018-04-18T21:29:02.431Z,5.27
2018-04-18T21:31:29.982Z,4.60
2018-04-18T21:33:57.544Z,5.33
2018-04-18T21:36:25.139Z,5.73
2018-04-18T21:38:52.691Z,6.60
2018-04-18T21:41:20.322Z,6.43
2018-04-18T21:43:47.878Z,5.50
2018-04-18T21:46:15.421Z,6.10
2018-04-18T21:48:43.017Z,5.60
2018-04-18T21:51:11.501Z,6.37
2018-04-18T21:53:39.094Z,6.17
2018-04-18T21:56:06.647Z,6.70
2018-04-18T21:58:34.531Z,6.37
2018-04-18T22:01:02.076Z,6.40
2018-04-18T22:03:29.670Z,5.90
2018-04-18T22:05:57.219Z,5.80
2018-04-18T22:08:24.807Z,6.27
2018-04-18T22:10:52.389Z,6.00
2018-04-18T22:13:19.931Z,6.17
2018-04-18T22:15:47.807Z,6.87
2018-04-18T22:18:15.570Z,7.00
2018-04-18T22:20:43.327Z,6.50
2018-04-18T22:23:10.914Z,5.83
2018-04-18T22:25:39.171Z,6.83
2018-04-18T22:28:06.770Z,6.90
2018-04-18T22:30:34.852Z,6.80
2018-04-18T22:33:03.784Z,6.50
2018-04-18T22:35:31.477Z,6.33
2018-04-18T22:37:59.226Z,7.13
2018-04-18T22:40:26.767Z,6.20
2018-04-18T22:42:54.378Z,7.10
2018-04-18T22:45:21.922Z,6.20
2018-04-18T22:47:50.422Z,7.47
2018-04-18T22:50:18.064Z,7.73
2018-04-18T22:52:45.610Z,7.07
2018-04-18T22:55:13.445Z,6.90
2018-04-18T22:57:41.049Z,7.00
2018-04-18T23:00:08.694Z,7.50
2018-04-18T23:02:36.291Z,6.60
2018-04-18T23:05:04.114Z,6.73
2018-04-18T23:07:31.665Z,7.20
2018-04-18T23:10:00.651Z,8.40
2018-04-18T23:12:28.195Z,8.63
2018-04-18T23:14:55.801Z,7.50
2018-04-18T23:17:23.353Z,8.30
2018-04-18T23:19:51.091Z,9.57
2018-04-18T23:22:30.420Z,13.23
2018-04-18T23:24:58.006Z,9.43
2018-04-18T23:27:25.561Z,11.17
2018-04-18T23:29:53.150Z,9.73
2018-04-18T23:32:20.697Z,10.43
2018-04-18T23:34:49.665Z,10.27
2018-04-18T23:37:17.261Z,11.57
2018-04-18T23:39:45.210Z,11.50
2018-04-18T23:42:13.387Z,12.07
2018-04-18T23:44:41.282Z,11.77
2018-04-18T23:47:09.698Z,11.90
2018-04-18T23:49:37.318Z,10.67
2018-04-18T23:52:05.067Z,11.37
2018-04-18T23:54:32.616Z,11.83
2018-04-18T23:57:00.867Z,11.97
2018-04-18T23:59:28.657Z,12.00
